createdAt,value
2018-12-27T00:00:31.587Z,39.82
2018-12-27T00:03:04.362Z,39.82
2018-12-27T00:05:36.379Z,39.86
2018-12-27T00:08:08.054Z,39.86
2018-12-27T00:10:39.779Z,39.92
2018-12-27T00:13:11.722Z,39.92
2018-12-27T00:15:42.611Z,39.95
2018-12-27T00:18:14.775Z,39.83
2018-12-27T00:20:46.806Z,39.83
2018-12-27T00:23:19.298Z,39.97
2018-12-27T00:25:51.116Z,39.98
2018-12-27T00:28:22.754Z,39.92
2018-12-27T00:30:54.256Z,39.98
2018-12-27T00:33:27.262Z,39.95
2018-12-27T00:35:59.727Z,40.00
2018-12-27T00:38:31.994Z,40.05
2018-12-27T00:41:04.363Z,40.07
2018-12-27T00:43:36.813Z,40.07
2018-12-27T00:46:09.265Z,40.12
2018-12-27T00:48:42.307Z,40.16
2018-12-27T00:51:15.315Z,40.19
2018-12-27T00:53:47.770Z,40.21
2018-12-27T00:56:18.763Z,40.20
2018-12-27T00:58:51.307Z,40.21
2018-12-27T01:01:23.835Z,40.27
2018-12-27T01:03:56.290Z,40.21
2018-12-27T01:06:28.758Z,40.29
2018-12-27T01:08:59.783Z,40.28
2018-12-27T01:11:31.935Z,40.27
2018-12-27T01:14:04.332Z,40.25
2018-12-27T01:16:36.804Z,40.29
2018-12-27T01:19:09.574Z,40.30
2018-12-27T01:21:41.584Z,40.31
2018-12-27T01:24:14.707Z,40.34
2018-12-27T01:26:46.116Z,40.32
2018-12-27T01:29:18.774Z,40.25
2018-12-27T01:31:51.694Z,40.24
2018-12-27T01:34:22.747Z,40.27
2018-12-27T01:36:54.792Z,40.27
2018-12-27T01:39:27.391Z,40.28
2018-12-27T01:42:00.303Z,40.31
2018-12-27T01:44:32.886Z,40.31
2018-12-27T01:47:05.758Z,40.33
2018-12-27T01:49:38.266Z,40.39
2018-12-27T01:52:11.140Z,40.26
2018-12-27T01:54:44.306Z,40.20
2018-12-27T01:57:16.841Z,40.20
2018-12-27T01:59:49.383Z,40.21
2018-12-27T02:02:22.338Z,40.21
2018-12-27T02:04:55.361Z,40.16
2018-12-27T02:07:28.305Z,40.11
2018-12-27T02:10:00.865Z,40.16
2018-12-27T02:12:33.906Z,40.16
2018-12-27T02:15:06.763Z,40.16
2018-12-27T02:17:38.829Z,40.12
2018-12-27T02:20:10.949Z,40.07
2018-12-27T02:22:43.319Z,40.17
2018-12-27T02:25:15.815Z,40.13
2018-12-27T02:27:47.855Z,40.19
2018-12-27T02:30:20.030Z,40.15
2018-12-27T02:32:52.495Z,40.12
2018-12-27T02:35:24.837Z,40.25
2018-12-27T02:37:57.494Z,40.29
2018-12-27T02:40:29.926Z,40.27
2018-12-27T02:43:02.840Z,40.25
2018-12-27T02:45:35.071Z,40.22
2018-12-27T02:48:07.483Z,40.23
2018-12-27T02:50:39.781Z,40.26
2018-12-27T02:53:11.967Z,40.29
2018-12-27T02:55:44.314Z,40.30
2018-12-27T02:58:17.318Z,40.35
2018-12-27T03:00:50.083Z,40.40
2018-12-27T03:03:22.884Z,40.47
2018-12-27T03:05:55.307Z,40.40
2018-12-27T03:08:28.061Z,40.50
2018-12-27T03:11:01.018Z,40.48
2018-12-27T03:13:33.347Z,40.47
2018-12-27T03:16:05.810Z,40.47
2018-12-27T03:18:38.041Z,40.40
2018-12-27T03:21:10.831Z,40.33
2018-12-27T03:23:43.040Z,40.40
2018-12-27T03:26:15.807Z,40.45
2018-12-27T03:28:48.008Z,40.40
2018-12-27T03:31:20.506Z,40.36
2018-12-27T03:33:53.096Z,40.32
2018-12-27T03:36:26.038Z,40.35
2018-12-27T03:38:58.835Z,40.29
2018-12-27T03:41:31.421Z,40.34
2018-12-27T03:44:03.991Z,40.34
2018-12-27T03:46:36.512Z,40.33
2018-12-27T03:49:08.761Z,40.40
2018-12-27T03:51:39.940Z,40.40
2018-12-27T03:54:12.271Z,40.38
2018-12-27T03:56:45.375Z,40.39
2018-12-27T03:59:19.119Z,40.39
2018-12-27T04:01:52.304Z,40.41
2018-12-27T04:04:24.819Z,40.40
2018-12-27T04:06:57.134Z,40.46
2018-12-27T04:09:30.902Z,40.44
2018-12-27T04:12:03.756Z,40.51
2018-12-27T04:14:34.762Z,40.46
2018-12-27T04:17:06.643Z,40.51
2018-12-27T04:19:38.799Z,40.62
2018-12-27T04:22:10.395Z,40.62
2018-12-27T04:24:42.309Z,40.58
2018-12-27T04:27:14.108Z,40.59
2018-12-27T04:29:45.826Z,40.60
2018-12-27T04:32:17.940Z,40.56
2018-12-27T04:34:49.787Z,40.51
2018-12-27T04:37:21.772Z,40.50
2018-12-27T04:39:52.467Z,40.53
2018-12-27T04:42:24.327Z,40.53
2018-12-27T04:44:57.071Z,40.59
2018-12-27T04:47:29.305Z,40.62
2018-12-27T04:50:01.807Z,40.57
2018-12-27T04:52:33.757Z,40.61
2018-12-27T04:55:04.464Z,40.62
2018-12-27T04:57:36.416Z,40.62
2018-12-27T05:00:09.313Z,40.62
2018-12-27T05:02:41.320Z,40.73
2018-12-27T05:05:13.073Z,40.67
2018-12-27T05:07:45.630Z,40.63
2018-12-27T05:10:17.792Z,40.65
2018-12-27T05:12:49.773Z,40.65
2018-12-27T05:15:20.506Z,40.81
2018-12-27T05:17:52.818Z,40.84
2018-12-27T05:20:24.504Z,40.76
2018-12-27T05:22:57.271Z,40.76
2018-12-27T05:25:32.719Z,40.80
2018-12-27T05:28:03.881Z,40.92
2018-12-27T05:30:35.727Z,40.96
2018-12-27T05:33:06.863Z,40.96
2018-12-27T05:35:38.870Z,41.07
2018-12-27T05:38:10.819Z,41.18
2018-12-27T05:40:43.310Z,41.12
2018-12-27T05:43:15.002Z,40.96
2018-12-27T05:45:46.753Z,40.91
2018-12-27T05:48:18.546Z,40.82
2018-12-27T05:50:50.386Z,40.62
2018-12-27T05:53:23.029Z,40.62
2018-12-27T05:55:54.739Z,40.62
2018-12-27T05:58:26.500Z,40.58
2018-12-27T06:00:58.345Z,40.48
2018-12-27T06:03:30.308Z,40.55
2018-12-27T06:06:02.498Z,40.49
2018-12-27T06:08:34.306Z,40.46
2018-12-27T06:11:06.272Z,40.42
2018-12-27T06:13:38.044Z,40.36
2018-12-27T06:16:09.842Z,40.32
2018-12-27T06:18:41.402Z,40.32
2018-12-27T06:21:13.866Z,40.39
2018-12-27T06:23:45.974Z,40.31
2018-12-27T06:26:20.282Z,40.36
2018-12-27T06:28:52.311Z,40.31
2018-12-27T06:31:24.426Z,40.30
2018-12-27T06:33:56.062Z,40.35
2018-12-27T06:36:27.793Z,40.38
2018-12-27T06:38:58.535Z,40.35
2018-12-27T06:41:30.314Z,40.41
2018-12-27T06:44:02.075Z,40.47
2018-12-27T06:46:33.851Z,40.38
2018-12-27T06:49:05.767Z,40.42
2018-12-27T06:51:36.644Z,40.45
2018-12-27T06:54:08.450Z,40.49
2018-12-27T06:56:40.282Z,40.49
2018-12-27T06:59:12.002Z,40.50
2018-12-27T07:01:44.728Z,40.59
2018-12-27T07:04:15.706Z,40.60
2018-12-27T07:06:47.270Z,40.69
2018-12-27T07:09:19.281Z,40.74
2018-12-27T07:11:51.302Z,40.65
2018-12-27T07:14:22.985Z,40.61
2018-12-27T07:16:54.766Z,40.71
2018-12-27T07:19:26.269Z,40.74
2018-12-27T07:21:57.947Z,40.67
2018-12-27T07:24:29.814Z,40.57
2018-12-27T07:27:02.054Z,40.58
2018-12-27T07:29:33.823Z,40.54
2018-12-27T07:32:05.763Z,40.46
2018-12-27T07:34:36.946Z,40.45
2018-12-27T07:37:08.782Z,40.45
2018-12-27T07:39:40.787Z,40.48
2018-12-27T07:42:12.786Z,40.42
2018-12-27T07:44:43.527Z,40.36
2018-12-27T07:47:15.272Z,40.42
2018-12-27T07:49:47.358Z,40.39
2018-12-27T07:52:19.690Z,40.31
2018-12-27T07:54:50.531Z,40.21
2018-12-27T07:57:22.317Z,40.21
2018-12-27T07:59:56.648Z,40.34
2018-12-27T08:02:29.354Z,40.48
2018-12-27T08:05:04.242Z,40.48
2018-12-27T08:07:36.305Z,40.47
2018-12-27T08:10:08.882Z,40.49
2018-12-27T08:12:40.777Z,40.41
2018-12-27T08:15:11.612Z,40.46
2018-12-27T08:17:42.940Z,40.47
2018-12-27T08:20:14.876Z,40.47
2018-12-27T08:22:46.765Z,40.47
2018-12-27T08:25:17.678Z,40.39
2018-12-27T08:27:48.622Z,40.49
2018-12-27T08:30:20.526Z,40.43
2018-12-27T08:32:52.762Z,40.43
2018-12-27T08:35:23.529Z,40.56
2018-12-27T08:37:55.277Z,40.55
2018-12-27T08:40:29.020Z,40.55
2018-12-27T08:43:00.749Z,40.49
2018-12-27T08:45:31.657Z,40.57
2018-12-27T08:48:03.789Z,40.53
2018-12-27T08:50:35.828Z,40.53
2018-12-27T08:53:07.725Z,40.49
2018-12-27T08:55:39.781Z,40.64
2018-12-27T08:58:10.626Z,40.62
2018-12-27T09:00:42.642Z,40.56
2018-12-27T09:03:14.771Z,40.53
2018-12-27T09:05:46.769Z,40.53
2018-12-27T09:08:18.797Z,40.82
2018-12-27T09:10:50.775Z,40.78
2018-12-27T09:13:21.630Z,40.76
2018-12-27T09:15:54.328Z,40.79
2018-12-27T09:18:26.332Z,40.79
2018-12-27T09:20:58.816Z,40.74
2018-12-27T09:23:32.889Z,40.75
2018-12-27T09:26:04.768Z,40.69
2018-12-27T09:28:35.494Z,40.66
2018-12-27T09:31:07.298Z,40.58
2018-12-27T09:33:39.420Z,40.61
2018-12-27T09:36:11.315Z,40.61
2018-12-27T09:38:43.270Z,40.63
2018-12-27T09:41:15.307Z,40.58
2018-12-27T09:43:46.991Z,40.46
2018-12-27T09:46:18.761Z,40.51
2018-12-27T09:48:50.079Z,40.27
2018-12-27T09:51:21.807Z,40.24
2018-12-27T09:53:53.662Z,40.14
2018-12-27T09:56:25.415Z,40.32
2018-12-27T09:58:57.756Z,40.32
2018-12-27T10:01:29.848Z,40.23
2018-12-27T10:04:01.786Z,40.35
2018-12-27T10:06:33.743Z,40.35
2018-12-27T10:09:06.299Z,40.40
2018-12-27T10:11:38.015Z,40.30
2018-12-27T10:14:10.058Z,40.32
2018-12-27T10:16:42.259Z,40.30
2018-12-27T10:19:13.872Z,40.17
2018-12-27T10:21:45.814Z,40.14
2018-12-27T10:24:17.863Z,40.16
2018-12-27T10:26:49.815Z,40.12
2018-12-27T10:29:21.739Z,40.23
2018-12-27T10:31:54.888Z,40.30
2018-12-27T10:34:28.399Z,40.27
2018-12-27T10:37:00.388Z,40.34
2018-12-27T10:39:32.307Z,40.34
2018-12-27T10:42:04.374Z,40.48
2018-12-27T10:44:36.313Z,40.50
2018-12-27T10:47:08.483Z,40.55
2018-12-27T10:49:40.059Z,40.53
2018-12-27T10:52:11.820Z,40.53
2018-12-27T10:54:43.449Z,40.41
2018-12-27T10:57:15.643Z,40.54
2018-12-27T10:59:47.373Z,40.57
2018-12-27T11:02:19.307Z,40.57
2018-12-27T11:04:50.976Z,40.61
2018-12-27T11:07:23.844Z,40.53
2018-12-27T11:09:56.877Z,40.54
2018-12-27T11:12:28.790Z,40.52
2018-12-27T11:15:00.795Z,40.33
2018-12-27T11:17:32.811Z,40.45
2018-12-27T11:20:04.757Z,40.38
2018-12-27T11:22:36.397Z,40.31
2018-12-27T11:25:08.107Z,40.27
2018-12-27T11:27:39.849Z,40.20
2018-12-27T11:30:12.308Z,40.26
2018-12-27T11:32:44.558Z,40.30
2018-12-27T11:35:16.265Z,40.38
2018-12-27T11:37:48.378Z,40.43
2018-12-27T11:40:20.302Z,40.26
2018-12-27T11:42:52.306Z,40.13
2018-12-27T11:45:23.983Z,40.12
2018-12-27T11:47:56.163Z,39.99
2018-12-27T11:50:28.307Z,39.97
2018-12-27T11:53:00.303Z,39.93
2018-12-27T11:55:32.306Z,40.01
2018-12-27T11:58:04.705Z,40.06
2018-12-27T12:00:36.681Z,40.11
2018-12-27T12:03:07.684Z,40.14
2018-12-27T12:05:39.288Z,40.25
2018-12-27T12:08:11.999Z,40.04
2018-12-27T12:10:43.718Z,40.12
2018-12-27T12:13:14.497Z,39.97
2018-12-27T12:15:46.307Z,40.06
2018-12-27T12:18:18.754Z,40.05
2018-12-27T12:20:49.949Z,40.07
2018-12-27T12:23:21.783Z,40.15
2018-12-27T12:25:53.343Z,39.99
2018-12-27T12:28:25.837Z,40.02
2018-12-27T12:30:57.479Z,40.16
2018-12-27T12:33:30.297Z,40.20
2018-12-27T12:36:02.763Z,40.24
2018-12-27T12:38:33.652Z,40.43
2018-12-27T12:41:06.304Z,40.40
2018-12-27T12:43:38.010Z,40.40
2018-12-27T12:46:12.375Z,40.33
2018-12-27T12:48:44.835Z,40.33
2018-12-27T12:51:16.708Z,40.41
2018-12-27T12:53:47.548Z,40.52
2018-12-27T12:56:19.709Z,40.46
2018-12-27T12:58:50.720Z,40.46
2018-12-27T13:01:21.486Z,40.43
2018-12-27T13:03:53.183Z,40.22
2018-12-27T13:06:25.575Z,40.34
2018-12-27T13:08:57.363Z,40.18
2018-12-27T13:11:30.219Z,40.18
2018-12-27T13:14:02.299Z,40.15
2018-12-27T13:16:33.850Z,40.27
2018-12-27T13:19:05.777Z,40.36
2018-12-27T13:21:38.566Z,40.14
2018-12-27T13:24:11.317Z,39.87
2018-12-27T13:26:43.902Z,39.87
2018-12-27T13:29:15.730Z,39.94
2018-12-27T13:31:46.543Z,40.13
2018-12-27T13:34:18.407Z,40.19
2018-12-27T13:36:50.683Z,40.19
2018-12-27T13:39:22.235Z,40.06
2018-12-27T13:41:53.995Z,40.02
2018-12-27T13:44:25.803Z,40.18
2018-12-27T13:46:57.798Z,40.05
2018-12-27T13:49:29.763Z,40.01
2018-12-27T13:52:00.604Z,40.13
2018-12-27T13:54:32.391Z,40.16
2018-12-27T13:57:04.262Z,40.08
2018-12-27T13:59:35.911Z,40.25
2018-12-27T14:02:08.423Z,40.10
2018-12-27T14:04:40.895Z,40.16
2018-12-27T14:07:13.064Z,40.17
2018-12-27T14:09:46.993Z,40.31
2018-12-27T14:12:18.802Z,40.32
2018-12-27T14:14:50.625Z,40.33
2018-12-27T14:17:22.377Z,40.34
2018-12-27T14:19:54.305Z,40.34
2018-12-27T14:22:25.849Z,40.24
2018-12-27T14:24:58.812Z,40.23
2018-12-27T14:27:30.675Z,40.15
2018-12-27T14:30:01.493Z,40.12
2018-12-27T14:32:33.296Z,40.06
2018-12-27T14:35:05.313Z,40.13
2018-12-27T14:37:37.320Z,40.24
2018-12-27T14:40:11.466Z,40.21
2018-12-27T14:42:43.393Z,40.33
2018-12-27T14:45:15.546Z,40.38
2018-12-27T14:47:47.570Z,40.20
2018-12-27T14:50:19.969Z,40.19
2018-12-27T14:52:51.815Z,40.19
2018-12-27T14:55:23.674Z,40.14
2018-12-27T14:57:55.469Z,40.02
2018-12-27T15:00:27.300Z,40.02
2018-12-27T15:02:59.306Z,39.91
2018-12-27T15:05:31.295Z,38.84
2018-12-27T15:08:03.249Z,30.32
2018-12-27T15:10:34.870Z,21.21
2018-12-27T15:13:06.891Z,16.39
2018-12-27T15:15:39.294Z,13.98
2018-12-27T15:18:11.055Z,12.66
2018-12-27T15:20:42.746Z,11.68
2018-12-27T15:23:14.399Z,10.99
2018-12-27T15:25:47.308Z,10.55
2018-12-27T15:28:19.304Z,10.33
2018-12-27T15:30:51.300Z,10.21
2018-12-27T15:33:23.003Z,9.98
2018-12-27T15:35:55.156Z,9.82
2018-12-27T15:38:27.302Z,9.83
2018-12-27T15:41:00.308Z,10.12
2018-12-27T15:43:32.334Z,10.71
2018-12-27T15:46:04.075Z,11.50
2018-12-27T15:48:36.489Z,12.43
2018-12-27T15:51:08.359Z,13.39
2018-12-27T15:53:40.452Z,14.41
2018-12-27T15:56:12.300Z,15.44
2018-12-27T15:58:44.063Z,16.46
2018-12-27T16:01:15.798Z,17.43
2018-12-27T16:03:47.555Z,18.37
2018-12-27T16:06:19.056Z,19.28
2018-12-27T16:08:50.460Z,20.97
2018-12-27T16:11:22.608Z,20.97
2018-12-27T16:13:54.351Z,22.83
2018-12-27T16:16:26.382Z,22.83
2018-12-27T16:18:58.783Z,23.51
2018-12-27T16:21:30.799Z,24.24
2018-12-27T16:24:02.613Z,24.96
2018-12-27T16:26:34.408Z,26.35
2018-12-27T16:29:06.383Z,26.35
2018-12-27T16:31:38.300Z,26.90
2018-12-27T16:34:10.010Z,27.51
2018-12-27T16:36:41.764Z,28.04
2018-12-27T16:39:13.640Z,28.58
2018-12-27T16:41:45.786Z,29.63
2018-12-27T16:44:17.747Z,29.63
2018-12-27T16:46:49.764Z,30.00
2018-12-27T16:49:31.332Z,30.37
2018-12-27T16:52:03.302Z,30.74
2018-12-27T16:54:34.921Z,30.88
2018-12-27T16:57:06.875Z,30.17
2018-12-27T16:59:38.742Z,28.90
2018-12-27T17:02:09.527Z,27.52
2018-12-27T17:04:42.313Z,25.66
2018-12-27T17:07:16.174Z,23.38
2018-12-27T17:09:47.374Z,21.32
2018-12-27T17:12:19.486Z,19.62
2018-12-27T17:14:52.301Z,18.27
2018-12-27T17:17:23.996Z,17.21
2018-12-27T17:19:55.762Z,16.38
2018-12-27T17:22:26.497Z,16.18
2018-12-27T17:24:58.459Z,16.56
2018-12-27T17:27:36.411Z,17.18
2018-12-27T17:30:08.795Z,17.99
2018-12-27T17:32:40.851Z,18.85
2018-12-27T17:35:12.764Z,19.82
2018-12-27T17:37:43.498Z,20.67
2018-12-27T17:40:15.323Z,21.54
2018-12-27T17:42:47.373Z,22.34
2018-12-27T17:45:19.754Z,23.18
2018-12-27T17:47:55.472Z,23.93
2018-12-27T17:50:27.310Z,24.68
2018-12-27T17:52:58.995Z,25.47
2018-12-27T17:55:30.746Z,26.14
2018-12-27T17:58:02.450Z,26.72
2018-12-27T18:00:34.257Z,27.32
2018-12-27T18:03:11.837Z,27.87
2018-12-27T18:05:43.610Z,28.41
2018-12-27T18:08:15.825Z,29.34
2018-12-27T18:10:47.792Z,29.34
2018-12-27T18:13:19.425Z,29.76
2018-12-27T18:15:51.311Z,29.62
2018-12-27T18:18:23.034Z,27.87
2018-12-27T18:20:54.739Z,25.99
2018-12-27T18:23:26.810Z,24.61
2018-12-27T18:25:59.419Z,23.61
2018-12-27T18:28:31.783Z,22.20
2018-12-27T18:31:03.796Z,20.13
2018-12-27T18:33:35.555Z,18.37
2018-12-27T18:36:07.304Z,17.87
2018-12-27T18:38:39.315Z,18.15
2018-12-27T18:41:11.061Z,18.68
2018-12-27T18:43:45.887Z,19.40
2018-12-27T18:46:17.822Z,20.18
2018-12-27T18:48:49.801Z,20.98
2018-12-27T18:51:21.760Z,21.78
2018-12-27T18:53:53.761Z,22.52
2018-12-27T18:56:25.851Z,23.30
2018-12-27T18:58:57.807Z,24.02
2018-12-27T19:01:30.073Z,24.74
2018-12-27T19:04:01.808Z,25.38
2018-12-27T19:06:33.652Z,26.03
2018-12-27T19:09:07.323Z,27.36
2018-12-27T19:12:52.761Z,27.36
2018-12-27T19:15:29.667Z,27.79
2018-12-27T19:18:11.460Z,25.39
2018-12-27T19:20:46.763Z,22.79
2018-12-27T19:23:20.634Z,20.52
2018-12-27T19:25:51.498Z,17.82
2018-12-27T19:28:23.359Z,17.82
2018-12-27T19:30:55.267Z,17.83
2018-12-27T19:33:27.314Z,18.31
2018-12-27T19:35:59.767Z,19.03
2018-12-27T19:38:31.390Z,19.83
2018-12-27T19:41:03.498Z,20.73
2018-12-27T19:43:37.149Z,21.59
2018-12-27T19:46:11.033Z,22.45
2018-12-27T19:48:43.310Z,23.30
2018-12-27T19:51:14.862Z,24.36
2018-12-27T19:53:46.742Z,25.03
2018-12-27T19:56:17.730Z,25.74
2018-12-27T19:58:49.754Z,26.49
2018-12-27T20:01:20.843Z,27.23
2018-12-27T20:03:52.778Z,27.98
2018-12-27T20:06:24.829Z,28.54
2018-12-27T20:08:56.794Z,28.78
2018-12-27T20:11:28.851Z,29.26
2018-12-27T20:14:00.757Z,29.79
2018-12-27T20:16:31.472Z,30.33
2018-12-27T20:19:03.784Z,30.75
2018-12-27T20:21:35.830Z,31.32
2018-12-27T20:24:07.379Z,31.52
2018-12-27T20:26:39.805Z,31.86
2018-12-27T20:29:11.824Z,32.16
2018-12-27T20:31:44.308Z,32.40
2018-12-27T20:34:16.266Z,32.66
2018-12-27T20:36:48.786Z,32.94
2018-12-27T20:39:20.778Z,33.19
2018-12-27T20:41:51.655Z,33.44
2018-12-27T20:44:23.784Z,33.96
2018-12-27T20:46:55.804Z,33.96
2018-12-27T20:49:27.760Z,34.10
2018-12-27T20:51:59.889Z,34.30
2018-12-27T20:54:31.817Z,34.45
2018-12-27T20:57:03.793Z,34.60
2018-12-27T20:59:35.799Z,34.74
2018-12-27T21:02:08.058Z,34.90
2018-12-27T21:04:40.513Z,35.08
2018-12-27T21:07:12.826Z,35.35
2018-12-27T21:09:44.871Z,35.56
2018-12-27T21:12:17.308Z,35.75
2018-12-27T21:14:49.400Z,35.90
2018-12-27T21:17:21.892Z,36.01
2018-12-27T21:19:53.877Z,36.14
2018-12-27T21:22:25.824Z,36.29
2018-12-27T21:24:58.206Z,36.36
2018-12-27T21:27:30.326Z,36.43
2018-12-27T21:30:02.300Z,36.48
2018-12-27T21:32:34.315Z,36.53
2018-12-27T21:35:06.307Z,36.59
2018-12-27T21:37:38.437Z,36.57
2018-12-27T21:40:10.466Z,36.65
2018-12-27T21:42:42.718Z,36.74
2018-12-27T21:45:14.251Z,36.78
2018-12-27T21:47:46.305Z,36.82
2018-12-27T21:50:19.827Z,36.91
2018-12-27T21:52:51.800Z,36.89
2018-12-27T21:55:23.862Z,36.96
2018-12-27T21:57:55.778Z,36.94
2018-12-27T22:00:27.997Z,36.98
2018-12-27T22:02:59.803Z,37.00
2018-12-27T22:05:31.781Z,37.06
2018-12-27T22:08:03.777Z,37.13
2018-12-27T22:10:35.784Z,37.11
2018-12-27T22:13:08.301Z,37.11
2018-12-27T22:15:40.397Z,37.15
2018-12-27T22:18:13.030Z,37.19
2018-12-27T22:20:44.857Z,37.25
2018-12-27T22:23:17.311Z,37.29
2018-12-27T22:25:49.813Z,37.32
2018-12-27T22:28:22.804Z,37.40
2018-12-27T22:30:54.833Z,37.42
2018-12-27T22:33:26.790Z,37.47
2018-12-27T22:36:01.059Z,37.48
2018-12-27T22:38:35.746Z,37.50
2018-12-27T22:41:07.300Z,37.58
2018-12-27T22:43:39.612Z,37.58
2018-12-27T22:46:11.809Z,37.57
2018-12-27T22:48:43.787Z,37.57
2018-12-27T22:51:15.792Z,37.65
2018-12-27T22:53:47.842Z,37.73
2018-12-27T22:56:19.732Z,37.83
2018-12-27T22:58:51.779Z,37.82
2018-12-27T23:01:24.300Z,37.83
2018-12-27T23:03:56.825Z,37.84
2018-12-27T23:06:28.779Z,37.95
2018-12-27T23:09:00.278Z,37.95
2018-12-27T23:11:32.301Z,38.03
2018-12-27T23:14:04.339Z,38.07
2018-12-27T23:16:36.631Z,38.09
2018-12-27T23:19:08.448Z,38.02
2018-12-27T23:21:40.302Z,38.03
2018-12-27T23:24:12.252Z,38.04
2018-12-27T23:26:44.321Z,38.00
2018-12-27T23:29:16.365Z,37.96
2018-12-27T23:31:48.860Z,38.02
2018-12-27T23:34:20.991Z,38.03
2018-12-27T23:36:53.657Z,37.99
2018-12-27T23:39:24.780Z,37.92
2018-12-27T23:41:57.051Z,38.01
2018-12-27T23:44:29.491Z,37.92
2018-12-27T23:47:01.464Z,37.98
2018-12-27T23:49:33.791Z,37.90
2018-12-27T23:52:05.764Z,37.99
2018-12-27T23:54:37.195Z,37.92
2018-12-27T23:57:09.296Z,37.97
2018-12-27T23:59:41.300Z,37.94
